createdAt,value
2019-03-18T05:01:25.570Z,2.50
2019-03-18T05:12:16.981Z,2.40
2019-03-18T05:27:15.278Z,2.90
2019-03-18T06:17:17.842Z,2.70
2019-03-18T06:24:45.561Z,2.70
2019-03-18T06:25:19.991Z,2.80
2019-03-18T06:31:16.993Z,2.70
2019-03-18T06:41:28.547Z,3.00
2019-03-18T06:42:39.507Z,2.80
2019-03-18T06:43:35.035Z,2.90
2019-03-18T06:46:16.866Z,2.60
2019-03-18T07:05:13.156Z,2.60
2019-03-18T07:05:56.115Z,2.50
2019-03-18T07:06:32.722Z,2.50
2019-03-18T07:08:06.558Z,2.60
2019-03-18T07:10:29.360Z,2.80
2019-03-18T07:11:06.877Z,2.50
2019-03-18T07:12:08.808Z,2.60
2019-03-18T07:13:05.568Z,2.80
2019-03-18T07:14:33.811Z,3.10
2019-03-18T07:15:30.449Z,3.10
2019-03-18T07:17:57.165Z,2.90
2019-03-18T07:18:40.237Z,3.30
2019-03-18T07:19:39.457Z,3.00
2019-03-18T07:20:41.677Z,3.20
2019-03-18T07:23:29.202Z,2.90
2019-03-18T07:24:32.835Z,2.80
2019-03-18T07:41:07.224Z,3.00
2019-03-18T07:41:39.837Z,2.90
2019-03-18T07:43:03.963Z,3.00
2019-03-18T07:55:01.842Z,2.70
2019-03-18T07:56:22.452Z,2.80
2019-03-18T07:58:40.065Z,3.20
2019-03-18T08:03:03.324Z,2.80
2019-03-18T08:04:00.299Z,2.90
2019-03-18T08:05:13.377Z,2.90
2019-03-18T08:05:39.103Z,2.70
2019-03-18T08:10:11.719Z,3.10
2019-03-18T08:16:20.167Z,2.90
2019-03-18T08:20:03.167Z,3.10
2019-03-18T08:22:53.264Z,3.10
2019-03-18T08:23:29.448Z,2.90
2019-03-18T08:24:36.160Z,3.40
2019-03-18T08:25:52.451Z,3.20
2019-03-18T08:40:57.703Z,3.10
2019-03-18T08:41:34.172Z,3.00
2019-03-18T08:42:41.201Z,2.70
2019-03-18T08:45:27.889Z,2.60
2019-03-18T08:48:10.200Z,2.20
2019-03-18T08:52:12.313Z,2.30
2019-03-18T08:52:42.089Z,2.40
2019-03-18T08:54:00.520Z,2.30
2019-03-18T08:54:43.232Z,2.30
2019-03-18T08:55:47.027Z,2.20
2019-03-18T09:00:16.039Z,2.40
2019-03-18T09:00:46.199Z,2.40
2019-03-18T09:53:25.675Z,1.50
2019-03-18T09:54:24.599Z,1.60
2019-03-18T09:55:26.009Z,1.50
2019-03-18T09:56:25.625Z,1.40
2019-03-18T09:57:26.263Z,1.70
2019-03-18T09:58:24.916Z,1.50
2019-03-18T09:59:29.170Z,1.60
2019-03-18T10:00:31.157Z,1.80
2019-03-18T10:01:24.057Z,1.60
2019-03-18T10:02:30.684Z,1.40
2019-03-18T10:03:25.689Z,1.50
2019-03-18T10:04:26.761Z,1.70
2019-03-18T10:05:24.278Z,1.60
2019-03-18T10:06:27.131Z,1.60
2019-03-18T10:08:01.854Z,1.50
2019-03-18T10:08:33.583Z,1.40
2019-03-18T10:09:27.052Z,1.10
2019-03-18T10:10:25.069Z,1.20
2019-03-18T10:11:25.279Z,1.20
2019-03-18T10:12:30.637Z,1.00
2019-03-18T10:15:33.271Z,1.20
2019-03-18T10:16:06.432Z,1.20
2019-03-18T10:17:09.746Z,1.00
2019-03-18T10:18:13.677Z,1.10
2019-03-18T10:23:41.110Z,1.40
2019-03-18T10:24:59.782Z,1.20
2019-03-18T10:25:44.097Z,1.10
2019-03-18T10:27:05.695Z,1.30
2019-03-18T10:27:40.595Z,1.30
2019-03-18T10:28:40.198Z,1.20
2019-03-18T10:31:38.242Z,1.30
2019-03-18T10:32:33.435Z,1.30
2019-03-18T10:36:41.031Z,1.40
2019-03-18T10:39:28.020Z,1.20
2019-03-18T10:47:40.776Z,1.20
2019-03-18T10:52:34.955Z,1.50
2019-03-18T10:53:33.248Z,1.60
2019-03-18T10:56:36.839Z,1.50
2019-03-18T10:58:51.596Z,1.70
2019-03-18T10:59:40.057Z,1.50
2019-03-18T11:00:40.157Z,1.40
2019-03-18T11:01:41.036Z,1.60
2019-03-18T11:02:41.036Z,1.80
2019-03-18T11:04:04.456Z,1.60
2019-03-18T11:04:44.301Z,1.60
2019-03-18T11:05:40.290Z,1.50
2019-03-18T11:06:50.080Z,1.50
2019-03-18T11:07:39.869Z,1.20
2019-03-18T11:08:39.856Z,1.30
2019-03-18T11:09:40.449Z,1.30
2019-03-18T11:10:55.784Z,1.30
2019-03-18T11:11:46.832Z,1.30
2019-03-18T11:12:41.202Z,1.40
2019-03-18T11:15:16.994Z,1.40
2019-03-18T11:16:13.479Z,1.50
2019-03-18T11:17:35.651Z,1.60
2019-03-18T11:18:34.458Z,1.50
2019-03-18T11:19:37.373Z,1.70
2019-03-18T11:20:12.011Z,1.50
2019-03-18T11:21:18.129Z,1.30
2019-03-18T11:22:16.892Z,1.60
2019-03-18T11:23:16.878Z,1.60
2019-03-18T11:24:36.866Z,1.60
2019-03-18T11:25:14.565Z,1.60
2019-03-18T11:26:15.909Z,1.30
2019-03-18T11:27:38.034Z,1.50
2019-03-18T11:30:11.419Z,1.70
2019-03-18T11:31:15.945Z,1.60
2019-03-18T11:31:49.900Z,1.60
2019-03-18T11:32:52.057Z,1.60
2019-03-18T11:56:52.071Z,1.60
2019-03-18T11:57:48.136Z,1.60
2019-03-18T11:58:50.634Z,1.80
2019-03-18T12:00:02.695Z,1.70
2019-03-18T12:00:49.311Z,1.70
2019-03-18T12:01:48.708Z,1.70
2019-03-18T12:03:11.756Z,1.60
2019-03-18T12:03:50.679Z,1.60
2019-03-18T12:05:05.143Z,1.50
2019-03-18T12:05:53.666Z,1.60
2019-03-18T12:06:49.533Z,1.50
2019-03-18T12:07:55.195Z,1.80
2019-03-18T12:09:00.429Z,1.70
2019-03-18T12:09:51.680Z,1.70
2019-03-18T12:10:50.702Z,1.50
2019-03-18T12:11:49.341Z,1.60
2019-03-18T12:12:50.708Z,1.70
2019-03-18T12:13:51.639Z,1.70
2019-03-18T12:15:21.422Z,1.70
2019-03-18T12:16:01.876Z,1.70
2019-03-18T12:16:52.225Z,1.70
2019-03-18T12:17:53.210Z,1.70
2019-03-18T12:18:52.305Z,1.80
2019-03-18T12:19:52.148Z,1.70
2019-03-18T12:20:52.562Z,1.60
2019-03-18T12:21:52.779Z,1.70
2019-03-18T12:22:55.246Z,1.80
2019-03-18T12:23:56.335Z,1.60
2019-03-18T12:24:57.668Z,1.70
2019-03-18T12:26:16.148Z,1.70
2019-03-18T12:27:00.156Z,1.70
2019-03-18T12:27:58.145Z,1.80
2019-03-18T12:28:54.207Z,1.80
2019-03-18T12:29:56.792Z,1.70
2019-03-18T12:30:54.139Z,1.70
2019-03-18T12:31:54.648Z,1.50
2019-03-18T12:32:57.195Z,1.90
2019-03-18T12:33:57.406Z,1.80
2019-03-18T12:34:57.194Z,1.80
2019-03-18T12:35:57.673Z,1.80
2019-03-18T12:36:54.913Z,2.00
2019-03-18T12:37:56.718Z,1.70
2019-03-18T12:38:57.253Z,1.80
2019-03-18T12:40:00.393Z,1.50
2019-03-18T12:40:56.193Z,1.60
2019-03-18T12:41:58.735Z,1.70
2019-03-18T12:42:56.702Z,1.70
2019-03-18T12:43:56.181Z,1.50
2019-03-18T12:44:57.202Z,1.80
2019-03-18T12:45:55.558Z,1.30
2019-03-18T12:46:55.764Z,1.60
2019-03-18T12:47:55.981Z,1.70
2019-03-18T12:48:57.211Z,1.30
2019-03-18T12:49:56.410Z,1.70
2019-03-18T12:51:00.191Z,1.90
2019-03-18T12:51:58.704Z,1.90
2019-03-18T12:52:59.737Z,1.70
2019-03-18T12:53:57.083Z,1.60
2019-03-18T12:54:57.306Z,1.70
2019-03-18T12:55:59.191Z,1.60
2019-03-18T12:56:58.678Z,1.30
2019-03-18T12:57:59.688Z,1.40
2019-03-18T12:58:59.761Z,1.30
2019-03-18T12:59:58.158Z,1.30
2019-03-18T13:01:12.215Z,1.30
2019-03-18T13:02:02.958Z,1.30
2019-03-18T13:03:03.195Z,1.20
2019-03-18T13:04:00.726Z,1.40
2019-03-18T13:05:05.982Z,1.40
2019-03-18T13:06:03.087Z,1.50
2019-03-18T13:07:01.208Z,1.40
2019-03-18T13:08:04.214Z,1.70
2019-03-18T13:09:01.711Z,1.70
2019-03-18T13:10:01.692Z,1.50
2019-03-18T13:11:03.712Z,1.60
2019-03-18T13:12:00.361Z,1.30
2019-03-18T13:13:02.258Z,1.60
2019-03-18T13:14:02.254Z,1.60
2019-03-18T13:15:01.394Z,1.80
2019-03-18T13:16:04.784Z,1.80
2019-03-18T13:17:01.717Z,1.60
2019-03-18T13:18:03.214Z,1.50
2019-03-18T13:19:01.663Z,1.60
2019-03-18T13:20:05.195Z,1.50
2019-03-18T13:21:07.700Z,1.60
2019-03-18T13:22:02.147Z,1.70
2019-03-18T13:23:02.375Z,1.50
2019-03-18T13:24:04.209Z,1.70
2019-03-18T13:25:04.699Z,1.60
2019-03-18T13:26:02.920Z,1.50
2019-03-18T13:27:03.190Z,1.60
2019-03-18T13:28:05.990Z,1.50
2019-03-18T13:29:19.194Z,1.60
2019-03-18T13:30:06.196Z,1.60
2019-03-18T13:31:03.852Z,1.70
2019-03-18T13:32:05.705Z,1.80
2019-03-18T13:33:04.230Z,1.80
2019-03-18T13:34:06.684Z,1.80
2019-03-18T13:35:21.226Z,1.70
2019-03-18T13:36:04.728Z,1.60
2019-03-18T13:37:05.545Z,1.70
2019-03-18T13:38:08.163Z,1.70
2019-03-18T13:39:29.217Z,1.50
2019-03-18T13:40:08.251Z,1.70
2019-03-18T13:41:09.153Z,1.80
2019-03-18T13:42:09.228Z,1.80
2019-03-18T13:43:10.906Z,1.60
2019-03-18T13:44:13.780Z,1.70
2019-03-18T13:45:09.152Z,2.10
2019-03-18T13:46:08.231Z,1.80
2019-03-18T13:47:06.590Z,1.40
2019-03-18T13:48:08.711Z,1.80
2019-03-18T13:49:08.697Z,1.80
2019-03-18T13:50:09.165Z,1.80
2019-03-18T13:51:20.322Z,1.90
2019-03-18T13:52:11.200Z,2.00
2019-03-18T13:53:10.706Z,1.90
2019-03-18T13:54:11.201Z,1.80
2019-03-18T13:55:09.737Z,1.80
2019-03-18T13:56:10.215Z,2.00
2019-03-18T13:57:16.941Z,1.80
2019-03-18T13:58:11.659Z,1.60
2019-03-18T13:59:08.634Z,1.80
2019-03-18T14:00:08.857Z,1.60
2019-03-18T14:01:10.111Z,1.50
2019-03-18T14:02:13.756Z,1.70
2019-03-18T14:03:09.917Z,1.90
2019-03-18T14:04:11.195Z,1.70
2019-03-18T14:05:11.201Z,1.60
2019-03-18T14:06:09.794Z,1.80
2019-03-18T14:07:11.787Z,1.80
2019-03-18T14:08:17.206Z,1.70
2019-03-18T14:09:12.219Z,1.90
2019-03-18T14:10:13.037Z,2.00
2019-03-18T14:11:10.893Z,1.90
2019-03-18T14:12:12.157Z,1.80
2019-03-18T14:13:14.656Z,1.70
2019-03-18T14:14:12.275Z,1.90
2019-03-18T14:15:15.230Z,1.80
2019-03-18T14:16:27.202Z,1.60
2019-03-18T14:17:13.707Z,1.50
2019-03-18T14:18:13.708Z,2.00
2019-03-18T14:19:27.725Z,1.90
2019-03-18T14:20:16.204Z,1.60
2019-03-18T14:21:12.535Z,1.80
2019-03-18T14:22:29.503Z,1.60
2019-03-18T14:23:15.380Z,1.80
2019-03-18T14:24:14.708Z,1.70
2019-03-18T14:25:15.212Z,1.60
2019-03-18T14:26:18.126Z,1.70
2019-03-18T14:27:15.252Z,1.80
2019-03-18T14:28:14.390Z,1.70
2019-03-18T14:29:15.705Z,1.50
2019-03-18T14:30:37.161Z,1.50
2019-03-18T14:31:18.153Z,1.80
2019-03-18T14:32:15.525Z,1.60
2019-03-18T14:33:14.744Z,1.70
2019-03-18T14:35:51.620Z,1.90
2019-03-18T14:36:51.667Z,1.60
2019-03-18T14:37:47.372Z,1.60
2019-03-18T14:38:47.448Z,1.50
2019-03-18T14:39:51.666Z,1.60
2019-03-18T14:40:52.874Z,1.70
2019-03-18T14:41:48.007Z,1.70
2019-03-18T14:42:48.182Z,1.60
2019-03-18T14:43:48.410Z,1.50
2019-03-18T14:44:52.099Z,1.50
2019-03-18T14:45:53.422Z,1.60
2019-03-18T14:46:48.969Z,1.50
2019-03-18T14:47:57.064Z,1.50
2019-03-18T14:48:51.099Z,1.40
2019-03-18T14:49:49.444Z,1.50
2019-03-18T14:50:50.864Z,1.50
2019-03-18T14:51:49.945Z,1.80
2019-03-18T14:52:50.036Z,1.50
2019-03-18T14:53:55.141Z,1.50
2019-03-18T14:54:52.103Z,1.80
2019-03-18T14:55:51.547Z,1.50
2019-03-18T14:56:58.618Z,1.40
2019-03-18T14:57:54.604Z,1.70
2019-03-18T14:58:52.606Z,1.60
2019-03-18T14:59:53.120Z,1.60
2019-03-18T15:00:51.321Z,1.70
2019-03-18T15:01:51.535Z,1.90
2019-03-18T15:02:54.613Z,1.60
2019-03-18T15:03:52.947Z,1.70
2019-03-18T15:04:56.103Z,2.70
2019-03-18T15:05:52.375Z,1.70
2019-03-18T15:06:52.560Z,1.60
2019-03-18T15:07:52.655Z,1.50
2019-03-18T15:08:52.870Z,1.90
2019-03-18T15:09:53.086Z,1.50
2019-03-18T15:10:53.286Z,1.60
2019-03-18T15:11:53.513Z,1.60
2019-03-18T15:12:54.778Z,2.20
2019-03-18T15:13:55.682Z,1.70
2019-03-18T15:14:54.980Z,1.60
2019-03-18T15:15:54.187Z,1.60
2019-03-18T15:16:58.140Z,1.90
2019-03-18T15:17:54.609Z,1.40
2019-03-18T15:18:54.860Z,1.40
2019-03-18T15:19:55.077Z,1.70
2019-03-18T15:20:55.277Z,1.60
2019-03-18T15:21:58.557Z,1.40
2019-03-18T15:22:55.695Z,1.20
2019-03-18T15:23:55.910Z,1.30
2019-03-18T15:24:59.162Z,1.40
2019-03-18T15:25:56.345Z,1.30
2019-03-18T15:26:56.553Z,1.30
2019-03-18T15:27:56.757Z,1.30
2019-03-18T15:28:58.610Z,1.20
2019-03-18T15:30:01.804Z,1.30
2019-03-18T15:30:59.137Z,1.60
2019-03-18T15:31:57.584Z,1.40
2019-03-18T15:32:57.789Z,1.60
2019-03-18T15:33:58.021Z,1.40
2019-03-18T15:34:58.243Z,1.50
2019-03-18T15:35:58.339Z,1.50
2019-03-18T15:36:58.554Z,1.50
2019-03-18T15:38:00.646Z,1.30
2019-03-18T15:39:00.616Z,1.40
2019-03-18T15:40:00.618Z,1.50
2019-03-18T15:40:59.255Z,1.50
2019-03-18T15:42:01.107Z,1.30
2019-03-18T15:42:59.576Z,1.10
2019-03-18T15:43:59.788Z,1.40
2019-03-18T15:45:03.617Z,1.40
2019-03-18T15:46:02.180Z,1.40
2019-03-18T15:47:00.401Z,1.30
2019-03-18T15:48:00.623Z,1.40
2019-03-18T15:49:02.624Z,1.50
2019-03-18T15:50:00.941Z,1.30
2019-03-18T15:51:01.145Z,1.60
2019-03-18T15:52:11.019Z,1.40
2019-03-18T15:53:03.105Z,1.30
2019-03-18T15:54:03.602Z,1.20
2019-03-18T15:55:01.875Z,1.60
2019-03-18T15:56:02.059Z,1.40
2019-03-18T15:57:02.267Z,1.50
2019-03-18T15:58:02.478Z,1.70
2019-03-18T15:59:02.679Z,1.40
2019-03-18T16:00:02.924Z,1.40
2019-03-18T16:01:06.694Z,1.60
2019-03-18T16:02:03.231Z,1.30
2019-03-18T16:03:07.115Z,1.40
2019-03-18T16:04:05.109Z,1.70
2019-03-18T16:05:04.701Z,1.40
2019-03-18T16:06:03.973Z,1.50
2019-03-18T16:07:04.035Z,2.30
2019-03-18T16:08:06.131Z,1.50
2019-03-18T16:09:04.494Z,1.90
2019-03-18T16:10:06.621Z,1.80
2019-03-18T16:11:04.838Z,1.40
2019-03-18T16:12:07.609Z,1.60
2019-03-18T16:13:06.602Z,1.50
2019-03-18T16:14:05.188Z,1.30
2019-03-18T16:15:05.378Z,1.50
2019-03-18T16:16:05.592Z,1.40
2019-03-18T16:17:08.638Z,1.50
2019-03-18T16:18:05.969Z,1.50
2019-03-18T16:19:06.182Z,1.40
2019-03-18T16:20:06.381Z,1.60
2019-03-18T16:21:06.603Z,1.50
2019-03-18T16:22:22.764Z,1.30
2019-03-18T16:23:07.968Z,1.60
2019-03-18T16:24:09.104Z,1.70
2019-03-18T16:25:11.711Z,1.40
2019-03-18T16:35:20.318Z,1.50
2019-03-18T16:36:20.321Z,1.20
2019-03-18T16:37:18.897Z,1.30
2019-03-18T16:38:19.538Z,1.40
2019-03-18T16:39:19.328Z,1.30
2019-03-18T16:40:19.494Z,1.60
2019-03-18T16:41:19.747Z,1.30
2019-03-18T16:42:21.872Z,1.40
2019-03-18T16:43:26.825Z,1.40
2019-03-18T16:44:22.910Z,1.20
2019-03-18T16:45:22.334Z,1.30
2019-03-18T16:46:22.330Z,1.30
2019-03-18T16:47:22.318Z,1.20
2019-03-18T16:48:22.820Z,1.50
2019-03-18T16:49:21.029Z,1.40
2019-03-18T16:50:21.237Z,1.30
2019-03-18T16:51:22.439Z,1.60
2019-03-18T16:52:21.632Z,1.60
2019-03-18T16:53:21.846Z,1.70
2019-03-18T16:54:23.829Z,1.70
2019-03-18T16:55:22.289Z,1.70
2019-03-18T16:56:22.487Z,1.40
2019-03-18T16:57:22.704Z,1.50
2019-03-18T16:58:22.903Z,1.20
2019-03-18T16:59:24.140Z,1.30
2019-03-18T17:00:24.321Z,1.30
2019-03-18T17:01:23.540Z,1.40
2019-03-18T17:02:23.651Z,1.40
2019-03-18T17:03:25.815Z,1.50
2019-03-18T17:04:45.025Z,1.40
2019-03-18T17:05:24.205Z,1.50
2019-03-18T17:06:24.405Z,1.70
2019-03-18T17:07:24.613Z,1.50
2019-03-18T17:08:24.828Z,1.60
2019-03-18T17:09:24.937Z,1.70
2019-03-18T17:10:27.836Z,2.10
2019-03-18T17:11:27.227Z,2.30
2019-03-18T17:12:25.439Z,2.20
2019-03-18T17:13:25.641Z,2.30
2019-03-18T17:14:27.821Z,1.80
2019-03-18T17:15:26.037Z,2.10
2019-03-18T17:16:27.246Z,3.10
2019-03-18T17:17:32.495Z,3.50
2019-03-18T17:18:28.331Z,3.30
2019-03-18T17:19:26.903Z,3.00
2019-03-18T17:20:27.103Z,2.90
2019-03-18T17:21:28.821Z,2.50
2019-03-18T17:22:29.025Z,2.60
2019-03-18T17:23:29.341Z,2.70
2019-03-18T17:24:29.825Z,3.50
2019-03-18T17:25:29.824Z,3.30
2019-03-18T17:26:28.275Z,2.50
2019-03-18T17:27:28.490Z,2.20
2019-03-18T17:28:29.726Z,2.20
2019-03-18T17:29:28.823Z,2.20
2019-03-18T17:30:29.046Z,2.50
2019-03-18T17:31:30.844Z,2.90
2019-03-18T17:32:30.305Z,3.20
2019-03-18T17:33:30.294Z,3.00
2019-03-18T17:34:31.324Z,3.30
2019-03-18T17:35:31.856Z,2.70
2019-03-18T17:36:30.772Z,3.00
2019-03-18T17:37:30.242Z,2.00
2019-03-18T17:38:32.323Z,1.90
2019-03-18T17:39:32.335Z,2.00
2019-03-18T17:40:32.317Z,2.10
2019-03-18T17:41:36.849Z,2.10
2019-03-18T17:42:31.214Z,1.80
2019-03-18T17:43:36.015Z,1.50
2019-03-18T17:44:36.092Z,1.70
2019-03-18T17:45:33.345Z,2.00
2019-03-18T17:46:31.941Z,2.00
2019-03-18T17:47:33.827Z,1.80
2019-03-18T17:48:33.851Z,2.10
2019-03-18T17:49:34.333Z,2.10
2019-03-18T17:50:36.316Z,2.10
2019-03-18T17:51:33.461Z,2.70
2019-03-18T17:52:33.012Z,3.10
2019-03-18T17:53:33.109Z,3.20
2019-03-18T17:54:33.324Z,2.80
2019-03-18T17:55:35.317Z,3.20
2019-03-18T17:56:37.337Z,2.80
2019-03-18T17:57:34.810Z,2.30
2019-03-18T17:58:35.818Z,2.00
2019-03-18T17:59:37.814Z,1.80
2019-03-18T18:00:35.820Z,1.70
2019-03-18T18:01:36.361Z,1.70
2019-03-18T18:02:34.541Z,1.60
2019-03-18T18:03:36.350Z,1.90
2019-03-18T18:04:34.937Z,1.80
2019-03-18T18:05:38.827Z,1.70
2019-03-18T18:06:41.870Z,2.10
2019-03-18T18:07:35.444Z,1.90
2019-03-18T18:08:35.694Z,1.80
2019-03-18T18:09:51.318Z,1.70
2019-03-18T18:10:36.009Z,1.60
2019-03-18T18:11:36.221Z,1.80
2019-03-18T18:12:36.457Z,1.80
2019-03-18T18:13:38.350Z,1.70
2019-03-18T18:14:40.620Z,1.70
2019-03-18T18:15:38.846Z,1.90
2019-03-18T18:16:38.854Z,1.60
2019-03-18T18:17:38.820Z,1.50
2019-03-18T18:18:38.558Z,1.70
2019-03-18T18:19:39.329Z,1.90
2019-03-18T18:20:41.330Z,1.80
2019-03-18T18:21:37.939Z,1.80
2019-03-18T18:22:41.869Z,1.60
2019-03-18T18:23:39.818Z,1.60
2019-03-18T18:24:39.821Z,1.50
2019-03-18T18:25:42.337Z,1.90
2019-03-18T18:26:45.325Z,1.60
2019-03-18T18:27:38.641Z,2.40
2019-03-18T18:28:41.640Z,1.70
2019-03-18T18:29:39.008Z,2.40
2019-03-18T18:30:42.819Z,3.30
2019-03-18T18:31:39.271Z,3.30
2019-03-18T18:32:39.474Z,3.00
2019-03-18T18:33:41.338Z,2.90
2019-03-18T18:35:00.906Z,2.50
2019-03-18T18:35:41.819Z,2.10
2019-03-18T18:36:40.274Z,2.10
2019-03-18T18:37:42.321Z,1.90
2019-03-18T18:38:48.354Z,1.90
2019-03-18T18:39:43.430Z,1.90
2019-03-18T18:40:48.841Z,1.70
2019-03-18T18:41:41.179Z,1.80
2019-03-18T18:42:43.351Z,1.70
2019-03-18T18:43:41.517Z,1.60
2019-03-18T18:44:43.323Z,1.90
2019-03-18T18:45:44.030Z,1.90
2019-03-18T18:46:43.822Z,1.90
2019-03-18T18:47:43.823Z,1.70
2019-03-18T18:48:42.484Z,2.00
2019-03-18T18:49:48.344Z,1.90
2019-03-18T18:50:44.321Z,2.00
2019-03-18T18:51:42.768Z,2.50
2019-03-18T18:52:46.828Z,1.90
2019-03-18T18:53:43.157Z,2.00
2019-03-18T18:54:44.408Z,1.80
2019-03-18T18:55:44.501Z,1.90
2019-03-18T18:56:47.337Z,1.70
2019-03-18T18:57:50.821Z,1.90
2019-03-18T18:58:44.176Z,1.90
2019-03-18T18:59:45.273Z,1.90
2019-03-18T19:00:46.326Z,1.70
2019-03-18T19:01:48.322Z,1.50
2019-03-18T19:02:44.806Z,1.90
2019-03-18T19:03:46.046Z,1.90
2019-03-18T19:04:45.139Z,1.60
2019-03-18T19:06:01.323Z,1.70
2019-03-18T19:06:46.539Z,1.60
2019-03-18T19:07:52.330Z,2.00
2019-03-18T19:08:45.823Z,2.00
2019-03-18T19:09:47.817Z,2.10
2019-03-18T19:10:47.840Z,2.00
2019-03-18T19:11:47.320Z,2.00
2019-03-18T19:12:47.395Z,2.00
2019-03-18T19:13:49.273Z,2.00
2019-03-18T19:14:50.817Z,2.00
2019-03-18T19:16:02.873Z,1.90
2019-03-18T19:16:50.821Z,1.90
2019-03-18T19:17:47.421Z,1.70
2019-03-18T19:18:50.378Z,1.80
2019-03-18T19:19:49.321Z,2.00
2019-03-18T19:20:49.816Z,2.10
2019-03-18T19:21:48.031Z,2.20
2019-03-18T19:22:51.827Z,2.20
2019-03-18T19:23:48.435Z,2.70
2019-03-18T19:24:50.351Z,2.60
2019-03-18T19:25:49.794Z,2.50
2019-03-18T19:26:50.819Z,2.70
2019-03-18T19:27:49.149Z,2.20
2019-03-18T19:28:49.351Z,2.30
2019-03-18T19:29:50.579Z,3.00
2019-03-18T19:30:51.298Z,2.40
2019-03-18T19:31:54.791Z,2.30
2019-03-18T19:32:50.791Z,2.20
2019-03-18T19:33:51.136Z,2.50
2019-03-18T19:34:54.320Z,2.20
2019-03-18T19:35:50.538Z,2.10
2019-03-18T19:36:52.329Z,2.30
2019-03-18T19:37:50.945Z,2.10
2019-03-18T19:38:52.820Z,2.10
2019-03-18T19:39:57.849Z,2.00
2019-03-18T19:40:55.315Z,4.20
2019-03-18T19:41:53.324Z,5.10
2019-03-18T19:42:56.303Z,4.10
2019-03-18T19:43:55.819Z,3.60
2019-03-18T19:44:52.143Z,3.30
2019-03-18T19:45:53.802Z,3.90
2019-03-18T19:46:52.532Z,3.70
2019-03-18T19:47:56.754Z,3.80
2019-03-18T19:49:00.844Z,3.60
2019-03-18T19:50:08.836Z,3.50
2019-03-18T19:50:54.862Z,3.50
2019-03-18T19:51:53.446Z,3.40
2019-03-18T19:52:53.681Z,3.80
2019-03-18T19:53:53.909Z,4.10
2019-03-18T19:54:54.990Z,3.50
2019-03-18T19:55:54.836Z,3.50
2019-03-18T19:56:54.531Z,4.20
2019-03-18T19:57:56.370Z,4.40
2019-03-18T19:58:55.833Z,4.00
2019-03-18T19:59:55.136Z,4.60
2019-03-18T20:00:57.629Z,6.10
2019-03-18T20:01:57.317Z,6.30
2019-03-18T20:02:57.334Z,5.30
2019-03-18T20:04:01.340Z,4.80
2019-03-18T20:04:57.334Z,4.90
2019-03-18T20:06:01.841Z,4.80
2019-03-18T20:06:56.170Z,4.60
2019-03-18T20:07:59.368Z,6.30
2019-03-18T20:08:56.576Z,6.00
2019-03-18T20:09:58.385Z,5.20
2019-03-18T20:11:05.378Z,5.40
2019-03-18T20:11:58.121Z,5.10
2019-03-18T20:12:57.233Z,4.90
2019-03-18T20:13:58.819Z,4.90
2019-03-18T20:15:20.285Z,5.80
2019-03-18T20:15:59.372Z,6.40
2019-03-18T20:16:59.094Z,6.70
2019-03-18T20:18:01.860Z,7.70
2019-03-18T20:19:04.826Z,7.40
2019-03-18T20:19:59.410Z,8.50
2019-03-18T20:20:58.631Z,9.20
2019-03-18T20:22:00.783Z,8.70
2019-03-18T20:22:59.029Z,8.40
2019-03-18T20:24:01.030Z,7.50
2019-03-18T20:25:00.390Z,6.50
2019-03-18T20:26:01.321Z,6.50
2019-03-18T20:26:59.643Z,5.60
2019-03-18T20:28:01.867Z,8.10
2019-03-18T20:29:01.830Z,11.40
2019-03-18T20:30:04.802Z,8.00
2019-03-18T20:31:11.502Z,7.00
2019-03-18T20:32:00.702Z,4.90
2019-03-18T20:33:01.939Z,4.50
2019-03-18T20:34:08.866Z,4.10
2019-03-18T20:35:02.820Z,3.90
2019-03-18T20:36:01.300Z,3.50
2019-03-18T20:37:17.322Z,3.50
2019-03-18T20:38:03.349Z,3.60
2019-03-18T20:39:05.315Z,3.50
2019-03-18T20:40:03.820Z,5.70
2019-03-18T20:41:03.781Z,9.20
2019-03-18T20:42:02.140Z,7.50
2019-03-18T20:43:03.315Z,4.60
2019-03-18T20:44:05.280Z,5.00
2019-03-18T20:45:06.318Z,3.90
2019-03-18T20:46:23.670Z,3.60
2019-03-18T20:47:04.780Z,4.40
2019-03-18T20:48:08.847Z,4.40
2019-03-18T20:49:09.324Z,3.80
2019-03-18T20:50:03.423Z,3.60
2019-03-18T20:51:05.339Z,3.40
2019-03-18T20:52:03.858Z,3.10
2019-03-18T20:53:04.859Z,3.00
2019-03-18T20:54:11.960Z,3.10
2019-03-18T20:55:07.818Z,3.40
2019-03-18T20:56:11.822Z,3.40
2019-03-18T20:57:12.336Z,3.70
2019-03-18T20:58:06.337Z,3.80
2019-03-18T20:59:08.323Z,3.70
2019-03-18T21:00:08.827Z,4.10
2019-03-18T21:01:05.081Z,4.10
2019-03-18T21:02:05.174Z,3.90
2019-03-18T21:03:07.363Z,3.70
2019-03-18T21:04:05.564Z,4.20
2019-03-18T21:05:07.323Z,3.60
2019-03-18T21:06:09.315Z,3.80
2019-03-18T21:07:05.917Z,3.50
2019-03-18T21:08:06.052Z,3.60
2019-03-18T21:09:06.143Z,3.80
2019-03-18T21:10:11.107Z,3.80
2019-03-18T21:11:06.539Z,3.60
2019-03-18T21:12:06.621Z,3.60
2019-03-18T21:13:08.380Z,3.70
2019-03-18T21:14:07.004Z,4.00
2019-03-18T21:15:29.828Z,3.60
2019-03-18T21:16:07.384Z,3.80
2019-03-18T21:17:09.367Z,3.40
2019-03-18T21:18:10.288Z,3.80
2019-03-18T21:19:13.839Z,3.90
2019-03-18T21:20:08.224Z,3.60
2019-03-18T21:21:10.316Z,3.70
2019-03-18T21:22:10.326Z,3.80
2019-03-18T21:23:10.322Z,3.60
2019-03-18T21:24:10.820Z,3.60
2019-03-18T21:25:16.816Z,3.60
2019-03-18T21:26:10.829Z,3.90
2019-03-18T21:27:12.370Z,4.40
2019-03-18T21:28:17.336Z,4.00
2019-03-18T21:29:11.319Z,3.80
2019-03-18T21:30:11.848Z,4.10
2019-03-18T21:31:14.785Z,4.80
2019-03-18T21:32:11.820Z,4.20
2019-03-18T21:33:10.515Z,3.90
2019-03-18T21:34:12.319Z,4.00
2019-03-18T21:35:10.775Z,4.80
2019-03-18T21:36:12.368Z,5.60
2019-03-18T21:37:17.839Z,6.90
2019-03-18T21:38:12.308Z,7.60
2019-03-18T21:39:13.337Z,7.30
2019-03-18T21:40:12.690Z,6.40
2019-03-18T21:41:15.877Z,5.50
2019-03-18T21:42:13.852Z,5.40
2019-03-18T21:43:12.331Z,3.90
2019-03-18T21:44:13.568Z,4.00
2019-03-18T21:45:16.321Z,3.80
2019-03-18T21:46:13.778Z,4.00
2019-03-18T21:47:13.001Z,3.40
2019-03-18T21:48:28.817Z,3.80
2019-03-18T21:49:13.386Z,3.20
2019-03-18T21:50:29.315Z,3.60
2019-03-18T21:51:36.854Z,3.30
2019-03-18T21:52:20.820Z,3.40
2019-03-18T21:53:14.149Z,3.50
2019-03-18T21:54:14.350Z,3.20
2019-03-18T21:55:16.318Z,3.40
2019-03-18T21:56:22.317Z,3.20
2019-03-18T21:57:15.921Z,3.10
2019-03-18T21:58:16.815Z,3.40
2019-03-18T21:59:15.169Z,3.30
2019-03-18T22:00:17.327Z,3.30
2019-03-18T22:01:15.548Z,3.40
2019-03-18T22:02:21.330Z,4.30
2019-03-18T22:03:17.771Z,4.40
2019-03-18T22:04:17.847Z,4.20
2019-03-18T22:05:19.819Z,3.70
2019-03-18T22:06:16.520Z,3.50
2019-03-18T22:07:18.326Z,3.30
2019-03-18T22:08:18.879Z,3.10
2019-03-18T22:09:32.831Z,3.30
2019-03-18T22:10:18.154Z,3.50
2019-03-18T22:11:18.266Z,3.70
2019-03-18T22:12:17.476Z,4.50
2019-03-18T22:13:29.548Z,4.20
2019-03-18T22:14:20.855Z,4.40
2019-03-18T22:15:40.816Z,4.20
2019-03-18T22:16:25.834Z,4.10
2019-03-18T22:17:20.326Z,4.00
2019-03-18T22:18:22.315Z,3.90
2019-03-18T22:19:34.343Z,4.90
2019-03-18T22:20:18.817Z,4.90
2019-03-18T22:21:18.979Z,5.10
2019-03-18T22:22:20.862Z,5.10
2019-03-18T22:23:21.777Z,5.30
2019-03-18T22:24:21.282Z,5.10
2019-03-18T22:25:21.316Z,5.30
2019-03-18T22:26:19.778Z,5.10
2019-03-18T22:27:40.982Z,5.60
2019-03-18T22:28:20.190Z,5.10
2019-03-18T22:29:21.480Z,4.90
2019-03-18T22:30:26.547Z,5.00
2019-03-18T22:31:24.316Z,4.80
2019-03-18T22:32:24.842Z,4.90
2019-03-18T22:33:36.820Z,4.60
2019-03-18T22:34:22.777Z,4.70
2019-03-18T22:35:22.122Z,4.20
2019-03-18T22:36:23.064Z,4.00
2019-03-18T22:37:23.318Z,3.80
2019-03-18T22:38:21.633Z,4.50
2019-03-18T22:39:25.817Z,4.60
2019-03-18T22:40:23.819Z,5.60
2019-03-18T22:41:23.819Z,5.40
2019-03-18T22:42:22.279Z,5.60
2019-03-18T22:43:26.314Z,5.50
2019-03-18T22:44:24.338Z,5.20
2019-03-18T22:45:23.821Z,5.20
2019-03-18T22:46:23.543Z,4.80
2019-03-18T22:47:23.163Z,3.80
2019-03-18T22:48:24.818Z,3.50
2019-03-18T22:49:23.431Z,3.50
2019-03-18T22:50:23.529Z,3.50
2019-03-18T22:51:25.321Z,4.00
2019-03-18T22:52:26.821Z,3.80
2019-03-18T22:53:39.974Z,4.00
2019-03-18T22:54:55.579Z,4.00
2019-03-18T22:55:24.378Z,3.90
2019-03-18T22:56:26.315Z,4.10
2019-03-18T22:57:25.644Z,3.90
2019-03-18T22:58:29.769Z,4.00
2019-03-18T22:59:26.854Z,4.10
2019-03-18T23:00:25.220Z,3.70
2019-03-18T23:01:25.307Z,4.40
2019-03-18T23:02:26.306Z,4.20
2019-03-18T23:03:25.631Z,4.20
2019-03-18T23:04:27.818Z,4.40
2019-03-18T23:05:26.016Z,4.30
2019-03-18T23:06:27.786Z,4.00
2019-03-18T23:07:26.377Z,4.10
2019-03-18T23:08:30.336Z,3.60
2019-03-18T23:09:30.321Z,3.90
2019-03-18T23:10:30.861Z,4.30
2019-03-18T23:11:32.284Z,4.30
2019-03-18T23:12:33.799Z,4.90
2019-03-18T23:13:29.293Z,4.70
2019-03-18T23:14:29.319Z,4.60
2019-03-18T23:17:01.278Z,6.10
2019-03-18T23:18:00.740Z,5.50
2019-03-18T23:19:02.754Z,5.60
2019-03-18T23:20:00.463Z,5.80
2019-03-18T23:21:02.230Z,5.60
2019-03-18T23:22:04.276Z,5.40
2019-03-18T23:23:00.514Z,6.00